createdAt,value
2022-10-29T00:01:00.908Z,11.2
2022-10-29T00:02:08.075Z,11.2
2022-10-29T00:03:15.221Z,11.2
2022-10-29T00:04:21.765Z,11.2
2022-10-29T00:05:28.833Z,11.2
2022-10-29T00:06:36.021Z,11.2
2022-10-29T00:07:43.033Z,11.2
2022-10-29T00:08:50.207Z,11.2
2022-10-29T00:09:56.767Z,11.2
2022-10-29T00:11:03.876Z,11.3
2022-10-29T00:12:10.919Z,11.3
2022-10-29T00:13:18.117Z,11.3
2022-10-29T00:14:25.277Z,11.3
2022-10-29T00:15:31.764Z,11.3
2022-10-29T00:16:38.886Z,11.3
2022-10-29T00:17:45.969Z,11.3
2022-10-29T00:18:53.478Z,11.3
2022-10-29T00:20:00.370Z,11.3
2022-10-29T00:21:06.794Z,11.2
2022-10-29T00:22:13.894Z,11.2
2022-10-29T00:23:20.946Z,11.2
2022-10-29T00:25:35.214Z,11.1
2022-10-29T00:26:41.736Z,11.1
2022-10-29T00:27:48.887Z,11.1
2022-10-29T00:28:55.971Z,11.1
2022-10-29T00:30:03.095Z,11.1
2022-10-29T00:32:16.968Z,11
2022-10-29T00:33:23.910Z,11
2022-10-29T00:34:31.074Z,11
2022-10-29T00:36:45.245Z,10.9
2022-10-29T00:37:51.764Z,10.9
2022-10-29T00:38:58.924Z,10.8
2022-10-29T00:40:06.026Z,10.8
2022-10-29T00:41:13.125Z,10.9
2022-10-29T00:42:20.191Z,10.8
2022-10-29T00:43:26.843Z,10.8
2022-10-29T00:44:33.873Z,10.8
2022-10-29T00:45:40.978Z,10.8
2022-10-29T00:46:48.108Z,10.8
2022-10-29T00:47:55.671Z,10.8
2022-10-29T00:49:01.828Z,10.8
2022-10-29T00:50:08.967Z,10.8
2022-10-29T00:51:16.015Z,10.8
2022-10-29T00:52:23.136Z,10.7
2022-10-29T00:53:29.700Z,10.7
2022-10-29T00:54:36.856Z,10.7
2022-10-29T00:55:43.928Z,10.6
2022-10-29T00:56:51.023Z,10.6
2022-10-29T00:57:58.569Z,10.6
2022-10-29T00:59:05.765Z,10.6
2022-10-29T01:00:11.832Z,10.5
2022-10-29T01:01:19.036Z,10.5
2022-10-29T01:02:26.149Z,10.6
2022-10-29T01:03:33.098Z,10.6
2022-10-29T01:04:39.711Z,10.6
2022-10-29T01:05:46.825Z,10.6
2022-10-29T01:06:53.929Z,10.6
2022-10-29T01:08:01.047Z,10.6
2022-10-29T01:09:08.167Z,10.5
2022-10-29T01:10:14.737Z,10.5
2022-10-29T01:11:21.877Z,10.5
2022-10-29T01:12:30.005Z,10.5
2022-10-29T01:13:36.090Z,10.5
2022-10-29T01:14:43.163Z,10.5
2022-10-29T01:15:49.747Z,10.5
2022-10-29T01:16:56.864Z,10.5
2022-10-29T01:18:03.963Z,10.5
2022-10-29T01:19:11.158Z,10.5
2022-10-29T01:21:24.807Z,10.5
2022-10-29T01:22:31.827Z,10.5
2022-10-29T01:23:38.995Z,10.5
2022-10-29T01:24:46.056Z,10.4
2022-10-29T01:25:53.216Z,10.5
2022-10-29T01:26:59.779Z,10.5
2022-10-29T01:28:06.885Z,10.5
2022-10-29T01:29:14.052Z,10.5
2022-10-29T01:30:21.079Z,10.5
2022-10-29T01:31:28.226Z,10.5
2022-10-29T01:32:34.715Z,10.5
2022-10-29T01:33:41.836Z,10.5
2022-10-29T01:35:56.072Z,10.5
2022-10-29T01:37:03.259Z,10.5
2022-10-29T01:38:09.753Z,10.5
2022-10-29T01:39:16.905Z,10.5
2022-10-29T01:40:23.944Z,10.5
2022-10-29T01:41:31.136Z,10.5
2022-10-29T01:42:40.059Z,10.5
2022-10-29T01:43:44.777Z,10.5
2022-10-29T01:44:51.846Z,10.5
2022-10-29T01:45:59.018Z,10.5
2022-10-29T01:47:06.127Z,10.5
2022-10-29T01:48:13.198Z,10.5
2022-10-29T01:49:19.798Z,10.6
2022-10-29T01:50:26.935Z,10.6
2022-10-29T01:51:33.977Z,10.5
2022-10-29T01:52:41.086Z,10.5
2022-10-29T01:53:47.684Z,10.5
2022-10-29T01:54:55.816Z,10.5
2022-10-29T01:56:01.893Z,10.5
2022-10-29T01:57:08.988Z,10.5
2022-10-29T01:59:35.470Z,10.4
2022-10-29T02:00:29.835Z,10.4
2022-10-29T02:01:37.093Z,10.4
2022-10-29T02:02:48.276Z,10.4
2022-10-29T02:04:57.726Z,10.4
2022-10-29T02:06:04.858Z,10.3
2022-10-29T02:07:11.903Z,10.3
2022-10-29T02:08:19.003Z,10.3
2022-10-29T02:09:26.128Z,10.2
2022-10-29T02:10:32.687Z,10.2
2022-10-29T02:11:39.818Z,10.3
2022-10-29T02:12:46.910Z,10.2
2022-10-29T02:13:54.023Z,10.2
2022-10-29T02:15:01.085Z,10.1
2022-10-29T02:16:07.774Z,10.1
2022-10-29T02:17:14.925Z,10.1
2022-10-29T02:18:21.888Z,10
2022-10-29T02:19:29.036Z,10
2022-10-29T02:20:36.124Z,10
2022-10-29T02:21:42.745Z,10
2022-10-29T02:22:49.328Z,9.9
2022-10-29T02:23:57.011Z,9.8
2022-10-29T02:25:04.072Z,9.8
2022-10-29T02:26:11.118Z,9.8
2022-10-29T02:27:17.786Z,9.7
2022-10-29T02:28:24.850Z,9.7
2022-10-29T02:29:31.902Z,9.6
2022-10-29T02:30:39.032Z,9.6
2022-10-29T02:31:46.188Z,9.6
2022-10-29T02:32:53.007Z,9.6
2022-10-29T02:33:59.906Z,9.6
2022-10-29T02:35:06.420Z,9.6
2022-10-29T02:36:14.147Z,9.6
2022-10-29T02:37:21.124Z,9.6
2022-10-29T02:39:34.841Z,9.6
2022-10-29T02:40:41.949Z,9.6
2022-10-29T02:41:49.068Z,9.6
2022-10-29T02:42:56.480Z,9.6
2022-10-29T02:44:02.717Z,9.6
2022-10-29T02:45:09.865Z,9.7
2022-10-29T02:46:16.976Z,9.6
2022-10-29T02:47:24.055Z,9.6
2022-10-29T02:48:31.124Z,9.6
2022-10-29T02:49:37.741Z,9.6
2022-10-29T02:51:51.974Z,9.7
2022-10-29T02:52:59.088Z,9.7
2022-10-29T02:54:06.185Z,9.7
2022-10-29T02:55:12.759Z,9.6
2022-10-29T02:56:19.874Z,9.6
2022-10-29T02:57:27.050Z,9.6
2022-10-29T02:58:34.117Z,9.7
2022-10-29T02:59:40.667Z,9.7
2022-10-29T03:00:47.764Z,9.7
2022-10-29T03:01:55.025Z,9.7
2022-10-29T03:03:02.058Z,9.7
2022-10-29T03:04:09.089Z,9.8
2022-10-29T03:05:15.695Z,9.8
2022-10-29T03:06:22.797Z,9.8
2022-10-29T03:07:29.886Z,9.9
2022-10-29T03:08:36.996Z,9.9
2022-10-29T03:09:44.109Z,9.9
2022-10-29T03:10:50.689Z,9.9
2022-10-29T03:11:57.797Z,9.9
2022-10-29T03:13:04.927Z,9.9
2022-10-29T03:14:12.049Z,9.8
2022-10-29T03:15:19.160Z,9.8
2022-10-29T03:17:32.812Z,9.9
2022-10-29T03:19:46.965Z,9.9
2022-10-29T03:20:54.128Z,9.9
2022-10-29T03:22:00.729Z,9.9
2022-10-29T03:23:07.816Z,9.9
2022-10-29T03:24:14.940Z,9.9
2022-10-29T03:25:22.007Z,9.9
2022-10-29T03:26:29.135Z,9.9
2022-10-29T03:27:35.724Z,9.8
2022-10-29T03:28:42.840Z,9.9
2022-10-29T03:29:49.947Z,9.8
2022-10-29T03:30:57.044Z,9.8
2022-10-29T03:33:10.738Z,9.7
2022-10-29T03:34:17.815Z,9.7
2022-10-29T03:35:24.912Z,9.6
2022-10-29T03:36:32.026Z,9.6
2022-10-29T03:37:39.126Z,9.6
2022-10-29T03:38:45.748Z,9.5
2022-10-29T03:39:52.847Z,9.5
2022-10-29T03:40:59.967Z,9.5
2022-10-29T03:43:14.167Z,9.4
2022-10-29T03:44:20.687Z,9.4
2022-10-29T03:45:27.872Z,9.4
2022-10-29T03:46:34.977Z,9.3
2022-10-29T03:47:42.006Z,9.3
2022-10-29T03:48:49.156Z,9.3
2022-10-29T03:49:55.732Z,9.3
2022-10-29T03:51:02.803Z,9.2
2022-10-29T03:52:09.948Z,9.1
2022-10-29T03:53:17.098Z,9.1
2022-10-29T03:54:24.159Z,9.1
2022-10-29T03:55:30.718Z,9.1
2022-10-29T03:56:37.896Z,9
2022-10-29T03:58:52.047Z,9
2022-10-29T03:59:59.207Z,9
2022-10-29T04:01:05.817Z,9
2022-10-29T04:02:13.057Z,9
2022-10-29T04:03:19.997Z,9
2022-10-29T04:04:27.097Z,9
2022-10-29T04:05:34.206Z,9
2022-10-29T04:06:40.745Z,9
2022-10-29T04:07:47.890Z,9.1
2022-10-29T04:08:54.987Z,9.1
2022-10-29T04:10:02.134Z,9.2
2022-10-29T04:11:09.227Z,9.2
2022-10-29T04:12:15.795Z,9.1
2022-10-29T04:13:22.861Z,9.1
2022-10-29T04:14:30.147Z,9.1
2022-10-29T04:15:37.107Z,9
2022-10-29T04:16:43.680Z,9
2022-10-29T04:17:50.777Z,9
2022-10-29T04:18:57.907Z,9
2022-10-29T04:20:10.074Z,8.9
2022-10-29T04:27:01.855Z,8.7
2022-10-29T04:28:41.348Z,8.6
2022-10-29T04:29:00.846Z,8.6
2022-10-29T04:30:07.980Z,8.6
2022-10-29T04:31:15.045Z,8.6
2022-10-29T04:32:22.117Z,8.5
2022-10-29T04:33:28.725Z,8.4
2022-10-29T04:34:35.798Z,8.4
2022-10-29T04:35:42.864Z,8.4
2022-10-29T04:36:50.025Z,8.4
2022-10-29T04:37:57.135Z,8.4
2022-10-29T04:40:10.908Z,8.3
2022-10-29T04:41:17.941Z,8.3
2022-10-29T04:42:25.045Z,8.3
2022-10-29T04:43:32.101Z,8.2
2022-10-29T04:44:38.727Z,8.2
2022-10-29T04:46:52.924Z,8.2
2022-10-29T04:48:00.050Z,8.2
2022-10-29T04:50:13.737Z,8.2
2022-10-29T04:51:20.855Z,8.2
2022-10-29T04:52:27.909Z,8.3
2022-10-29T04:53:35.024Z,8.3
2022-10-29T04:54:42.136Z,8.3
2022-10-29T04:55:48.712Z,8.3
2022-10-29T04:56:55.828Z,8.2
2022-10-29T04:58:02.946Z,8.2
2022-10-29T04:59:10.026Z,8.2
2022-10-29T05:01:24.006Z,8.2
2022-10-29T05:02:30.827Z,8.1
2022-10-29T05:03:37.942Z,8.1
2022-10-29T05:04:45.067Z,8.1
2022-10-29T05:05:52.115Z,8.1
2022-10-29T05:06:58.779Z,8.1
2022-10-29T05:08:05.945Z,8.1
2022-10-29T05:09:12.927Z,8.1
2022-10-29T05:10:20.052Z,8
2022-10-29T05:11:26.672Z,8
2022-10-29T05:12:33.738Z,8
2022-10-29T05:13:40.848Z,8
2022-10-29T05:14:47.966Z,8.1
2022-10-29T05:15:55.094Z,8.1
2022-10-29T05:18:08.797Z,8.1
2022-10-29T05:19:15.877Z,8.2
2022-10-29T05:21:30.125Z,8.3
2022-10-29T05:22:40.167Z,8.3
2022-10-29T05:23:43.747Z,8.4
2022-10-29T05:24:50.858Z,8.4
2022-10-29T05:25:58.015Z,8.4
2022-10-29T05:27:05.103Z,8.4
2022-10-29T05:28:11.703Z,8.4
2022-10-29T05:29:18.761Z,8.4
2022-10-29T05:30:25.897Z,8.3
2022-10-29T05:31:32.994Z,8.3
2022-10-29T05:32:40.186Z,8.3
2022-10-29T05:33:48.085Z,8.3
2022-10-29T05:34:53.730Z,8.3
2022-10-29T05:36:00.878Z,8.3
2022-10-29T05:37:08.060Z,8.3
2022-10-29T05:38:15.080Z,8.2
2022-10-29T05:39:21.633Z,8.2
2022-10-29T05:40:28.776Z,8.1
2022-10-29T05:41:35.974Z,8.1
2022-10-29T05:42:47.228Z,8.1
2022-10-29T05:43:50.103Z,8.1
2022-10-29T05:44:56.689Z,8.1
2022-10-29T05:46:03.776Z,8.1
2022-10-29T05:47:10.927Z,8.1
2022-10-29T05:48:18.051Z,8.1
2022-10-29T05:50:31.651Z,8.1
2022-10-29T05:51:38.826Z,8
2022-10-29T05:52:45.906Z,8
2022-10-29T05:53:52.964Z,8
2022-10-29T05:55:00.137Z,7.9
2022-10-29T05:56:06.753Z,7.9
2022-10-29T05:57:13.808Z,7.9
2022-10-29T05:58:20.929Z,7.9
2022-10-29T05:59:31.095Z,7.8
2022-10-29T06:00:35.130Z,7.8
2022-10-29T06:02:48.929Z,7.8
2022-10-29T06:03:55.936Z,7.8
2022-10-29T06:05:02.997Z,7.8
2022-10-29T06:06:10.227Z,7.7
2022-10-29T06:07:16.737Z,7.7
2022-10-29T06:08:23.782Z,7.6
2022-10-29T06:09:30.937Z,7.6
2022-10-29T06:10:38.077Z,7.6
2022-10-29T06:11:45.157Z,7.6
2022-10-29T06:12:51.717Z,7.6
2022-10-29T06:13:58.864Z,7.7
2022-10-29T06:15:05.977Z,7.7
2022-10-29T06:16:13.036Z,7.7
2022-10-29T06:17:20.169Z,7.7
2022-10-29T06:18:26.767Z,7.7
2022-10-29T06:19:35.442Z,7.7
2022-10-29T06:20:40.958Z,7.8
2022-10-29T06:21:48.068Z,7.8
2022-10-29T06:22:55.371Z,7.8
2022-10-29T06:24:01.720Z,7.8
2022-10-29T06:25:08.847Z,7.8
2022-10-29T06:26:15.942Z,7.8
2022-10-29T06:27:23.130Z,7.8
2022-10-29T06:29:36.747Z,7.8
2022-10-29T06:30:43.836Z,7.8
2022-10-29T06:31:50.969Z,7.8
2022-10-29T06:32:58.430Z,7.8
2022-10-29T06:34:05.188Z,7.9
2022-10-29T06:35:11.713Z,7.9
2022-10-29T06:36:18.859Z,7.9
2022-10-29T06:37:25.987Z,7.9
2022-10-29T06:38:33.146Z,7.9
2022-10-29T06:39:40.208Z,7.9
2022-10-29T06:40:46.788Z,7.9
2022-10-29T06:41:53.929Z,7.9
2022-10-29T06:44:08.097Z,7.9
2022-10-29T06:45:14.659Z,8
2022-10-29T06:46:21.767Z,8
2022-10-29T06:48:35.989Z,8.1
2022-10-29T06:49:43.085Z,8.1
2022-10-29T06:50:49.676Z,8.1
2022-10-29T06:51:56.795Z,8.1
2022-10-29T06:54:10.977Z,8.1
2022-10-29T06:55:18.086Z,8.1
2022-10-29T06:56:24.685Z,8.1
2022-10-29T06:57:31.766Z,8.1
2022-10-29T06:58:38.898Z,8.1
2022-10-29T06:59:45.961Z,8.1
2022-10-29T07:00:53.164Z,8.1
2022-10-29T07:01:59.834Z,8.1
2022-10-29T07:03:06.815Z,8.1
2022-10-29T07:04:13.919Z,8.1
2022-10-29T07:05:20.990Z,8.1
2022-10-29T07:06:28.157Z,8.1
2022-10-29T07:07:34.709Z,8.1
2022-10-29T07:08:41.797Z,8.2
2022-10-29T07:09:48.889Z,8.2
2022-10-29T07:10:56.077Z,8.2
2022-10-29T07:12:03.087Z,8.3
2022-10-29T07:13:09.750Z,8.3
2022-10-29T07:14:16.808Z,8.3
2022-10-29T07:16:31.025Z,8.3
2022-10-29T07:17:38.159Z,8.3
2022-10-29T07:18:44.697Z,8.4
2022-10-29T07:19:51.799Z,8.4
2022-10-29T07:20:58.924Z,8.5
2022-10-29T07:22:06.077Z,8.5
2022-10-29T07:23:13.139Z,8.5
2022-10-29T07:25:26.932Z,8.6
2022-10-29T07:26:33.906Z,8.6
2022-10-29T07:27:41.085Z,8.6
2022-10-29T07:28:48.130Z,8.6
2022-10-29T07:29:54.679Z,8.6
2022-10-29T07:31:01.787Z,8.7
2022-10-29T07:32:09.025Z,8.8
2022-10-29T07:33:16.062Z,8.8
2022-10-29T07:34:23.147Z,8.9
2022-10-29T07:35:29.872Z,9
2022-10-29T07:36:36.882Z,9
2022-10-29T07:37:43.957Z,9.1
2022-10-29T07:38:51.116Z,9.1
2022-10-29T07:39:58.138Z,9.1
2022-10-29T07:41:04.707Z,9.2
2022-10-29T07:42:11.846Z,9.2
2022-10-29T07:44:26.097Z,9.2
2022-10-29T07:45:33.123Z,9.2
2022-10-29T07:46:39.738Z,9.3
2022-10-29T07:47:46.928Z,9.3
2022-10-29T07:48:53.982Z,9.3
2022-10-29T07:50:01.055Z,9.3
2022-10-29T07:51:08.157Z,9.3
2022-10-29T07:52:14.883Z,9.3
2022-10-29T07:53:21.876Z,9.3
2022-10-29T07:54:28.956Z,9.3
2022-10-29T07:55:36.067Z,9.4
2022-10-29T07:57:49.845Z,9.4
2022-10-29T07:58:56.875Z,9.4
2022-10-29T08:00:03.966Z,9.4
2022-10-29T08:01:11.196Z,9.4
2022-10-29T08:02:18.282Z,9.5
2022-10-29T08:03:24.755Z,9.5
2022-10-29T08:04:31.860Z,9.5
2022-10-29T08:06:46.147Z,9.5
2022-10-29T08:07:52.723Z,9.5
2022-10-29T08:08:59.830Z,9.5
2022-10-29T08:10:06.938Z,9.5
2022-10-29T08:11:13.968Z,9.5
2022-10-29T08:12:21.140Z,9.5
2022-10-29T08:13:27.667Z,9.5
2022-10-29T08:14:34.774Z,9.5
2022-10-29T08:15:41.905Z,9.5
2022-10-29T08:16:49.017Z,9.5
2022-10-29T08:17:56.664Z,9.5
2022-10-29T08:19:02.695Z,9.6
2022-10-29T08:20:09.806Z,9.6
2022-10-29T08:21:16.924Z,9.6
2022-10-29T08:22:24.063Z,9.7
2022-10-29T08:23:31.125Z,9.7
2022-10-29T08:24:37.697Z,9.7
2022-10-29T08:25:44.785Z,9.8
2022-10-29T08:26:51.873Z,9.7
2022-10-29T08:27:59.030Z,9.8
2022-10-29T08:29:06.082Z,9.8
2022-10-29T08:30:12.719Z,9.8
2022-10-29T08:31:19.808Z,9.8
2022-10-29T08:32:26.942Z,9.8
2022-10-29T08:45:50.589Z,10
2022-10-29T08:48:04.871Z,10
2022-10-29T08:49:11.954Z,10
2022-10-29T08:50:19.066Z,10
2022-10-29T08:51:26.287Z,10.1
2022-10-29T08:52:32.743Z,10.1
2022-10-29T08:53:39.891Z,10.1
2022-10-29T08:54:46.916Z,10.2
2022-10-29T08:55:54.083Z,10.2
2022-10-29T08:57:01.147Z,10.2
2022-10-29T08:58:07.727Z,10.2
2022-10-29T08:59:14.866Z,10.2
2022-10-29T09:01:29.118Z,10.3
2022-10-29T09:02:36.213Z,10.3
2022-10-29T09:03:42.727Z,10.3
2022-10-29T09:04:49.864Z,10.3
2022-10-29T09:05:56.908Z,10.2
2022-10-29T09:07:04.077Z,10.2
2022-10-29T09:08:10.629Z,10.2
2022-10-29T09:09:17.766Z,10.2
2022-10-29T09:10:24.912Z,10.2
2022-10-29T09:11:31.923Z,10.2
2022-10-29T09:12:40.141Z,10.2
2022-10-29T09:14:52.720Z,10.2
2022-10-29T09:15:59.868Z,10.2
2022-10-29T09:17:10.223Z,10.2
2022-10-29T09:18:14.066Z,10.2
2022-10-29T09:19:20.684Z,10.2
2022-10-29T09:20:27.768Z,10.2
2022-10-29T09:21:34.928Z,10.2
2022-10-29T09:22:41.964Z,10.2
2022-10-29T09:23:49.083Z,10.2
2022-10-29T09:26:02.730Z,10.3
2022-10-29T09:27:10.624Z,10.3
2022-10-29T09:29:24.107Z,10.3
2022-10-29T09:30:30.683Z,10.4
2022-10-29T09:31:37.748Z,10.4
2022-10-29T09:32:44.991Z,10.4
2022-10-29T09:33:52.819Z,10.4
2022-10-29T09:34:59.116Z,10.4
2022-10-29T09:36:05.679Z,10.4
2022-10-29T09:37:12.788Z,10.4
2022-10-29T09:38:19.907Z,10.3
2022-10-29T09:39:30.284Z,10.3
2022-10-29T09:40:34.115Z,10.3
2022-10-29T09:42:47.806Z,10.3
2022-10-29T09:43:54.891Z,10.3
2022-10-29T09:45:01.968Z,10.4
2022-10-29T09:46:09.196Z,10.4
2022-10-29T09:47:15.777Z,10.4
2022-10-29T09:48:22.771Z,10.4
2022-10-29T09:49:29.927Z,10.4
2022-10-29T09:50:37.040Z,10.4
2022-10-29T09:51:44.116Z,10.4
2022-10-29T09:52:50.675Z,10.4
2022-10-29T09:53:57.826Z,10.4
2022-10-29T09:55:04.927Z,10.4
2022-10-29T09:56:11.981Z,10.5
2022-10-29T09:57:19.181Z,10.6
2022-10-29T09:58:25.747Z,10.6
2022-10-29T09:59:32.836Z,10.6
2022-10-29T10:00:39.949Z,10.6
2022-10-29T10:01:47.251Z,10.6
2022-10-29T10:02:54.600Z,10.6
2022-10-29T10:05:07.877Z,10.6
2022-10-29T10:06:14.917Z,10.7
2022-10-29T10:07:22.027Z,10.7
2022-10-29T10:08:29.188Z,10.7
2022-10-29T10:10:42.797Z,10.7
2022-10-29T10:11:49.972Z,10.7
2022-10-29T10:12:57.067Z,10.7
2022-10-29T10:14:03.617Z,10.7
2022-10-29T10:15:10.817Z,10.7
2022-10-29T10:16:18.899Z,10.7
2022-10-29T10:17:24.967Z,10.7
2022-10-29T10:18:32.191Z,10.7
2022-10-29T10:19:38.659Z,10.7
2022-10-29T10:20:45.778Z,10.7
2022-10-29T10:21:52.838Z,10.7
2022-10-29T10:23:00.146Z,10.7
2022-10-29T10:24:07.084Z,10.7
2022-10-29T10:25:13.645Z,10.7
2022-10-29T10:26:20.741Z,10.8
2022-10-29T10:27:28.968Z,10.8
2022-10-29T10:28:34.979Z,10.8
2022-10-29T10:29:42.045Z,10.9
2022-10-29T10:30:48.668Z,10.9
2022-10-29T10:31:55.799Z,10.9
2022-10-29T10:33:02.858Z,10.9
2022-10-29T10:34:09.989Z,10.9
2022-10-29T10:35:17.127Z,11
2022-10-29T10:36:23.666Z,11
2022-10-29T10:37:30.786Z,11
2022-10-29T10:38:37.904Z,11
2022-10-29T10:39:45.052Z,11
2022-10-29T10:40:52.079Z,11.1
2022-10-29T10:41:58.745Z,11.1
2022-10-29T10:43:08.282Z,11.1
2022-10-29T10:44:12.872Z,11.2
2022-10-29T10:45:20.033Z,11.2
2022-10-29T10:46:27.109Z,11.2
2022-10-29T10:47:33.663Z,11.2
2022-10-29T10:48:40.979Z,11.3
2022-10-29T10:49:47.885Z,11.3
2022-10-29T10:52:02.128Z,11.3
2022-10-29T10:54:15.887Z,11.3
2022-10-29T10:55:22.963Z,11.4
2022-10-29T10:56:29.985Z,11.4
2022-10-29T10:57:37.187Z,11.4
2022-10-29T10:58:43.685Z,11.4
2022-10-29T10:59:50.780Z,11.5
2022-10-29T11:00:57.959Z,11.5
2022-10-29T11:02:05.087Z,11.6
2022-10-29T11:03:12.174Z,11.6
2022-10-29T11:04:18.721Z,11.6
2022-10-29T11:05:25.840Z,11.6
2022-10-29T11:06:32.940Z,11.7
2022-10-29T11:08:46.629Z,11.9
2022-10-29T11:09:53.748Z,11.9
2022-10-29T11:11:00.828Z,11.9
2022-10-29T11:13:15.119Z,11.9
2022-10-29T11:14:21.609Z,12
2022-10-29T11:15:28.737Z,12
2022-10-29T11:16:35.861Z,12
2022-10-29T11:17:42.891Z,12.1
2022-10-29T11:18:50.114Z,12.2
2022-10-29T11:19:56.654Z,12.2
2022-10-29T11:21:03.775Z,12.2
2022-10-29T11:22:10.835Z,12.3
2022-10-29T11:23:17.938Z,12.3
2022-10-29T11:24:25.033Z,12.3
2022-10-29T11:25:31.644Z,12.3
2022-10-29T11:26:38.769Z,12.4
2022-10-29T11:27:46.007Z,12.4
2022-10-29T11:28:52.955Z,12.4
2022-10-29T11:30:00.038Z,12.4
2022-10-29T11:31:06.670Z,12.4
2022-10-29T11:33:20.808Z,12.5
2022-10-29T11:34:27.978Z,12.5
2022-10-29T11:35:35.097Z,12.5
2022-10-29T11:36:41.598Z,12.5
2022-10-29T11:37:48.825Z,12.5
2022-10-29T11:38:55.852Z,12.5
2022-10-29T11:40:03.493Z,12.5
2022-10-29T11:41:10.130Z,12.5
2022-10-29T11:44:30.848Z,12.5
2022-10-29T11:45:37.989Z,12.5
2022-10-29T11:46:45.080Z,12.5
2022-10-29T11:47:51.628Z,12.5
2022-10-29T11:48:58.792Z,12.5
2022-10-29T11:50:05.881Z,12.5
2022-10-29T11:51:12.935Z,12.6
2022-10-29T11:52:19.631Z,12.6
2022-10-29T11:53:26.733Z,12.6
2022-10-29T11:54:33.835Z,12.6
2022-10-29T11:55:40.833Z,12.6
2022-10-29T11:56:48.009Z,12.6
2022-10-29T11:57:54.559Z,12.6
2022-10-29T11:59:01.628Z,12.6
2022-10-29T12:00:08.821Z,12.7
2022-10-29T12:01:15.975Z,12.7
2022-10-29T12:02:23.067Z,12.7
2022-10-29T12:03:29.642Z,12.7
2022-10-29T12:04:36.735Z,12.7
2022-10-29T12:05:43.815Z,12.7
2022-10-29T12:06:50.887Z,12.7
2022-10-29T12:09:04.592Z,12.7
2022-10-29T12:10:11.776Z,12.7
2022-10-29T12:12:25.972Z,12.7
2022-10-29T12:14:39.591Z,12.7
2022-10-29T12:15:46.754Z,12.7
2022-10-29T12:16:53.753Z,12.7
2022-10-29T12:18:01.219Z,12.8
2022-10-29T12:19:08.060Z,12.8
2022-10-29T12:20:14.658Z,12.8
2022-10-29T12:22:28.816Z,12.8
2022-10-29T12:23:35.965Z,12.8
2022-10-29T12:24:43.009Z,12.8
2022-10-29T12:25:49.628Z,12.8
2022-10-29T12:26:56.731Z,12.8
2022-10-29T12:28:03.884Z,12.8
2022-10-29T12:29:10.898Z,12.9
2022-10-29T12:30:18.034Z,12.9
2022-10-29T12:31:24.666Z,12.9
2022-10-29T12:32:31.687Z,12.9
2022-10-29T12:33:38.859Z,12.9
2022-10-29T12:34:45.918Z,12.9
2022-10-29T12:36:59.648Z,13
2022-10-29T12:38:06.788Z,13
2022-10-29T12:39:13.845Z,13
2022-10-29T12:40:20.959Z,13
2022-10-29T12:41:28.085Z,13
2022-10-29T12:42:34.719Z,13
2022-10-29T12:43:41.740Z,13
2022-10-29T12:44:48.857Z,13
2022-10-29T12:47:03.040Z,12.8
2022-10-29T12:48:09.669Z,12.9
2022-10-29T12:49:16.730Z,12.8
2022-10-29T12:50:23.993Z,12.8
2022-10-29T12:51:30.909Z,12.8
2022-10-29T12:52:40.395Z,12.7
2022-10-29T12:53:44.649Z,12.7
2022-10-29T12:55:58.831Z,12.7
2022-10-29T12:57:05.976Z,12.7
2022-10-29T12:58:13.019Z,12.7
2022-10-29T12:59:19.644Z,12.7
2022-10-29T13:00:26.788Z,12.7
2022-10-29T13:02:05.377Z,12.7
2022-10-29T13:02:41.087Z,12.7
2022-10-29T13:04:54.675Z,12.7
2022-10-29T13:06:01.764Z,12.7
2022-10-29T13:07:08.949Z,12.8
2022-10-29T13:08:16.032Z,12.7
2022-10-29T13:09:23.041Z,12.7
2022-10-29T13:10:29.779Z,12.7
2022-10-29T13:11:36.851Z,12.7
2022-10-29T13:12:43.960Z,12.7
2022-10-29T13:13:50.969Z,12.7
2022-10-29T13:16:04.793Z,12.7
2022-10-29T13:17:11.738Z,12.7
2022-10-29T13:18:18.842Z,12.7
2022-10-29T13:19:26.021Z,12.8
2022-10-29T13:20:32.531Z,12.8
2022-10-29T13:21:39.761Z,12.8
2022-10-29T13:22:46.774Z,12.8
2022-10-29T13:23:53.877Z,12.8
2022-10-29T13:25:01.099Z,12.9
2022-10-29T13:26:07.569Z,12.9
2022-10-29T13:27:14.818Z,13
2022-10-29T13:28:21.805Z,13
2022-10-29T13:29:28.955Z,13
2022-10-29T13:30:36.075Z,13
2022-10-29T13:31:42.593Z,13.1
2022-10-29T13:32:49.689Z,13.1
2022-10-29T13:33:56.888Z,13.2
2022-10-29T13:35:03.858Z,13.2
2022-10-29T13:37:17.593Z,13.2
2022-10-29T13:38:25.768Z,13.2
2022-10-29T13:39:31.803Z,13.2
2022-10-29T13:40:38.913Z,13.2
2022-10-29T13:41:46.050Z,13.2
2022-10-29T13:42:52.674Z,13.2
2022-10-29T13:43:59.748Z,13.1
2022-10-29T13:45:06.873Z,13.2
2022-10-29T13:46:13.872Z,13.1
2022-10-29T13:47:21.071Z,13.1
2022-10-29T13:48:27.634Z,13.1
2022-10-29T13:50:41.830Z,13
2022-10-29T13:51:48.949Z,13
2022-10-29T13:52:56.338Z,13.1
2022-10-29T13:54:02.570Z,13
2022-10-29T13:55:09.752Z,13.1
2022-10-29T13:56:16.872Z,13.1
2022-10-29T13:57:23.918Z,13.1
2022-10-29T13:58:30.993Z,13.1
2022-10-29T13:59:37.652Z,13.2
2022-10-29T14:00:44.745Z,13.1
2022-10-29T14:01:51.947Z,13.1
2022-10-29T14:02:58.916Z,13.2
2022-10-29T14:04:06.000Z,13.2
2022-10-29T14:05:12.598Z,13.2
2022-10-29T14:06:20.325Z,13.2
2022-10-29T14:07:26.912Z,13.1
2022-10-29T14:08:33.936Z,13.2
2022-10-29T14:09:40.530Z,13.2
2022-10-29T14:10:47.667Z,13.2
2022-10-29T14:11:54.727Z,13.1
2022-10-29T14:13:01.817Z,13.1
2022-10-29T14:14:09.009Z,13.1
2022-10-29T14:15:15.597Z,13.1
2022-10-29T14:16:22.641Z,13.2
2022-10-29T14:19:43.988Z,13.1
2022-10-29T14:20:50.517Z,13.1
2022-10-29T14:21:57.712Z,13.1
2022-10-29T14:23:04.831Z,13.1
2022-10-29T14:24:11.890Z,13
2022-10-29T14:25:18.967Z,13
2022-10-29T14:26:25.604Z,13
2022-10-29T14:27:32.711Z,13
2022-10-29T14:28:39.741Z,13
2022-10-29T14:29:48.577Z,13
2022-10-29T14:30:53.938Z,13
2022-10-29T14:32:00.525Z,13
2022-10-29T14:33:07.740Z,13
2022-10-29T14:35:21.322Z,13
2022-10-29T14:36:29.067Z,13
2022-10-29T14:37:35.570Z,13
2022-10-29T14:38:42.719Z,13
2022-10-29T14:39:57.857Z,12.9
2022-10-29T14:40:56.935Z,12.9
2022-10-29T14:42:03.976Z,12.9
2022-10-29T14:43:10.581Z,12.9
2022-10-29T14:44:17.816Z,12.9
2022-10-29T14:45:24.789Z,12.9
2022-10-29T14:46:31.936Z,12.9
2022-10-29T14:47:39.047Z,12.9
2022-10-29T14:48:45.731Z,12.9
2022-10-29T14:49:52.770Z,12.8
2022-10-29T14:50:59.839Z,12.8
2022-10-29T14:52:07.007Z,12.8
2022-10-29T14:53:14.071Z,12.8
2022-10-29T14:54:20.630Z,12.8
2022-10-29T14:55:27.824Z,12.8
2022-10-29T14:56:34.881Z,12.9
2022-10-29T14:57:41.958Z,12.8
2022-10-29T14:58:49.096Z,12.9
2022-10-29T14:59:55.759Z,12.8
2022-10-29T15:01:02.853Z,12.8
2022-10-29T15:03:17.005Z,12.7
2022-10-29T15:04:23.518Z,12.7
2022-10-29T15:05:30.645Z,12.7
2022-10-29T15:06:37.794Z,12.7
2022-10-29T15:07:44.877Z,12.7
2022-10-29T15:08:51.886Z,12.7
2022-10-29T15:09:59.112Z,12.6
2022-10-29T15:11:05.609Z,12.6
2022-10-29T15:12:13.629Z,12.6
2022-10-29T15:13:19.869Z,12.6
2022-10-29T15:15:34.079Z,12.5
2022-10-29T15:16:42.479Z,12.5
2022-10-29T15:18:54.820Z,12.4
2022-10-29T15:20:01.911Z,12.4
2022-10-29T15:21:09.098Z,12.4
2022-10-29T15:23:22.782Z,12.3
2022-10-29T15:24:29.908Z,12.3
2022-10-29T15:25:36.946Z,12.2
2022-10-29T15:26:43.548Z,12.3
2022-10-29T15:27:50.732Z,12.2
2022-10-29T15:28:57.729Z,12.2
2022-10-29T15:31:11.965Z,12.2
2022-10-29T15:32:18.616Z,12.1
2022-10-29T15:33:25.666Z,12.2
2022-10-29T15:34:32.761Z,12.2
2022-10-29T15:35:39.901Z,12.1
2022-10-29T15:36:47.011Z,12.2
2022-10-29T15:37:53.633Z,12.1
2022-10-29T15:39:00.809Z,12.1
2022-10-29T15:40:07.794Z,12.1
2022-10-29T15:41:14.861Z,12.1
2022-10-29T15:42:21.981Z,12
2022-10-29T15:43:28.549Z,12
2022-10-29T15:44:35.716Z,12
2022-10-29T15:45:42.730Z,12
2022-10-29T15:46:49.858Z,12
2022-10-29T15:47:57.361Z,12
2022-10-29T15:49:03.700Z,12
2022-10-29T15:50:10.690Z,12
2022-10-29T15:51:17.808Z,12
2022-10-29T15:52:24.867Z,12
2022-10-29T15:53:32.023Z,12
2022-10-29T15:54:39.717Z,12
2022-10-29T15:55:45.699Z,12
2022-10-29T15:56:52.741Z,12
2022-10-29T15:59:07.018Z,12
2022-10-29T16:00:13.589Z,12
2022-10-29T16:01:20.915Z,12
2022-10-29T16:02:27.859Z,12
2022-10-29T16:03:36.946Z,12
2022-10-29T16:04:41.479Z,12
2022-10-29T16:05:48.582Z,12
2022-10-29T16:06:55.703Z,11.9
2022-10-29T16:08:02.799Z,11.9
2022-10-29T16:09:09.896Z,11.9
2022-10-29T16:10:17.002Z,11.9
2022-10-29T16:11:23.657Z,11.9
2022-10-29T16:12:30.695Z,11.9
2022-10-29T16:13:37.831Z,11.9
2022-10-29T16:14:44.959Z,11.9
2022-10-29T16:15:51.972Z,11.9
2022-10-29T16:16:58.604Z,11.9
2022-10-29T16:18:05.747Z,11.9
2022-10-29T16:19:12.772Z,11.9
2022-10-29T16:20:19.952Z,11.9
2022-10-29T16:21:27.038Z,11.8
2022-10-29T16:22:33.575Z,11.9
2022-10-29T16:23:40.795Z,11.9
2022-10-29T16:24:47.823Z,11.8
2022-10-29T16:27:01.637Z,11.8
2022-10-29T16:28:08.696Z,11.8
2022-10-29T16:29:15.766Z,11.8
2022-10-29T16:30:23.022Z,11.8
2022-10-29T16:31:30.013Z,11.8
2022-10-29T16:32:36.505Z,11.8
2022-10-29T16:33:43.665Z,11.8
2022-10-29T16:34:50.734Z,11.8
2022-10-29T16:35:57.832Z,11.8
2022-10-29T16:37:04.930Z,11.8
2022-10-29T16:38:11.606Z,11.8
2022-10-29T16:39:18.676Z,11.8
2022-10-29T16:40:25.835Z,11.8
2022-10-29T16:41:32.877Z,11.8
2022-10-29T16:42:40.374Z,11.8